createdAt,value
2023-05-11T00:00:18.465Z,5.50
2023-05-11T00:03:22.878Z,6.75
2023-05-11T00:06:25.813Z,5.57
2023-05-11T00:09:29.423Z,7.45
2023-05-11T00:12:32.190Z,6.35
2023-05-11T00:15:35.109Z,6.57
2023-05-11T00:18:39.626Z,3.95
2023-05-11T00:21:42.419Z,4.82
2023-05-11T00:24:45.195Z,6.20
2023-05-11T00:27:48.210Z,4.72
2023-05-11T00:30:51.046Z,6.28
2023-05-11T00:33:55.595Z,4.40
2023-05-11T00:36:58.516Z,4.28
2023-05-11T00:40:01.380Z,2.92
2023-05-11T00:43:04.407Z,3.92
2023-05-11T00:46:08.330Z,4.07
2023-05-11T00:49:12.631Z,5.32
2023-05-11T00:52:15.808Z,5.18
2023-05-11T00:55:20.871Z,4.88
2023-05-11T00:58:24.095Z,3.15
2023-05-11T01:01:27.936Z,4.13
2023-05-11T01:04:32.706Z,4.78
2023-05-11T01:07:40.043Z,4.85
2023-05-11T01:10:47.714Z,3.45
2023-05-11T01:13:54.339Z,3.78
2023-05-11T01:17:00.391Z,5.38
2023-05-11T01:20:09.016Z,4.15
2023-05-11T01:23:30.479Z,3.17
2023-05-11T01:26:50.555Z,4.57
2023-05-11T01:30:22.839Z,5.50
2023-05-11T01:33:32.530Z,6.03
2023-05-11T01:36:40.188Z,5.72
2023-05-11T01:39:49.537Z,4.68
2023-05-11T01:43:04.903Z,4.93
2023-05-11T01:46:11.936Z,6.63
2023-05-11T01:49:17.212Z,3.13
2023-05-11T01:52:22.629Z,3.85
2023-05-11T01:55:26.932Z,2.53
2023-05-11T01:58:31.231Z,3.95
2023-05-11T02:01:36.717Z,3.35
2023-05-11T02:04:41.220Z,4.45
2023-05-11T02:07:45.405Z,3.90
2023-05-11T02:10:49.472Z,3.13
2023-05-11T02:13:54.389Z,3.75
2023-05-11T02:16:59.089Z,3.58
2023-05-11T02:20:04.631Z,4.03
2023-05-11T02:23:09.914Z,3.08
2023-05-11T02:26:14.719Z,3.97
2023-05-11T02:29:17.625Z,3.72
2023-05-11T02:32:26.136Z,2.90
2023-05-11T02:35:31.287Z,4.68
2023-05-11T02:38:35.854Z,3.83
2023-05-11T02:41:44.623Z,2.50
2023-05-11T02:44:59.055Z,3.00
2023-05-11T02:48:09.711Z,3.97
2023-05-11T02:51:15.840Z,3.92
2023-05-11T02:54:24.894Z,3.67
2023-05-11T02:57:29.738Z,2.60
2023-05-11T03:00:37.087Z,4.00
2023-05-11T03:03:42.044Z,3.05
2023-05-11T03:06:45.141Z,3.50
2023-05-11T03:09:48.241Z,3.20
2023-05-11T03:12:51.611Z,4.07
2023-05-11T03:15:56.422Z,4.95
2023-05-11T03:19:01.967Z,3.05
2023-05-11T03:22:05.760Z,4.95
2023-05-11T03:25:09.748Z,3.65
2023-05-11T03:28:14.738Z,2.88
2023-05-11T03:31:24.297Z,3.70
2023-05-11T03:34:28.577Z,2.53
2023-05-11T03:37:32.207Z,2.83
2023-05-11T03:40:35.405Z,3.90
2023-05-11T03:43:39.791Z,4.38
2023-05-11T03:46:44.720Z,2.95
2023-05-11T03:49:52.018Z,3.03
2023-05-11T03:52:56.254Z,2.67
2023-05-11T03:55:59.247Z,2.95
2023-05-11T03:59:02.047Z,3.17
2023-05-11T04:02:05.644Z,3.33
2023-05-11T04:05:11.679Z,2.75
2023-05-11T04:08:16.830Z,3.95
2023-05-11T04:11:19.599Z,2.88
2023-05-11T04:14:22.406Z,2.47
2023-05-11T04:17:25.317Z,2.97
2023-05-11T04:20:29.449Z,2.50
2023-05-11T04:23:32.184Z,3.17
2023-05-11T04:26:34.922Z,3.33
2023-05-11T04:29:37.768Z,4.07
2023-05-11T04:32:40.514Z,2.58
2023-05-11T04:35:46.319Z,2.67
2023-05-11T04:38:49.156Z,2.53
2023-05-11T04:41:52.164Z,2.33
2023-05-11T04:44:55.257Z,3.53
2023-05-11T04:47:58.154Z,3.60
2023-05-11T04:51:05.304Z,3.17
2023-05-11T04:54:10.264Z,2.13
2023-05-11T04:57:13.110Z,2.88
2023-05-11T05:00:16.736Z,2.72
2023-05-11T05:03:19.763Z,2.53
2023-05-11T05:06:23.956Z,2.80
2023-05-11T05:09:26.745Z,2.05
2023-05-11T05:12:29.449Z,2.80
2023-05-11T05:15:32.306Z,3.10
2023-05-11T05:18:35.575Z,3.80
2023-05-11T05:21:40.669Z,3.38
2023-05-11T05:24:43.474Z,3.15
2023-05-11T05:27:46.290Z,3.63
2023-05-11T05:30:54.525Z,2.83
2023-05-11T05:33:57.741Z,3.08
2023-05-11T05:37:02.243Z,2.00
2023-05-11T05:40:06.651Z,3.13
2023-05-11T05:43:14.587Z,3.45
2023-05-11T05:46:19.225Z,2.20
2023-05-11T05:49:22.816Z,3.38
2023-05-11T05:52:27.090Z,3.05
2023-05-11T05:56:23.520Z,4.30
2023-05-11T05:59:26.863Z,2.75
2023-05-11T06:02:32.907Z,2.50
2023-05-11T06:05:35.806Z,3.30
2023-05-11T06:08:40.799Z,2.92
2023-05-11T06:11:43.718Z,2.63
2023-05-11T06:14:47.178Z,4.35
2023-05-11T06:17:50.501Z,4.18
2023-05-11T06:20:53.457Z,3.97
2023-05-11T06:23:57.699Z,6.03
2023-05-11T06:27:02.859Z,2.78
2023-05-11T06:30:08.670Z,4.45
2023-05-11T06:33:13.547Z,5.75
2023-05-11T06:36:16.831Z,4.75
2023-05-11T06:39:22.250Z,2.63
2023-05-11T06:42:25.034Z,3.97
2023-05-11T06:45:35.424Z,4.25
2023-05-11T06:48:38.325Z,13.43
2023-05-11T06:51:41.033Z,6.05
2023-05-11T06:54:45.755Z,13.50
2023-05-11T06:57:48.546Z,11.68
2023-05-11T07:00:51.390Z,12.93
2023-05-11T07:03:55.536Z,16.58
2023-05-11T07:06:58.318Z,20.08
2023-05-11T07:10:02.467Z,14.38
2023-05-11T07:13:05.473Z,11.43
2023-05-11T07:16:08.569Z,9.85
2023-05-11T07:19:11.692Z,11.07
2023-05-11T07:22:15.117Z,13.27
2023-05-11T07:25:19.355Z,6.85
2023-05-11T07:28:22.291Z,8.70
2023-05-11T07:31:25.130Z,11.52
2023-05-11T07:34:27.947Z,9.68
2023-05-11T07:37:30.717Z,10.82
2023-05-11T07:40:36.682Z,12.93
2023-05-11T07:43:39.437Z,10.73
2023-05-11T07:46:42.366Z,16.02
2023-05-11T07:49:47.395Z,9.88
2023-05-11T07:52:50.236Z,12.25
2023-05-11T07:55:54.399Z,15.38
2023-05-11T07:58:57.291Z,8.02
2023-05-11T08:02:00.215Z,15.07
2023-05-11T08:05:04.099Z,8.70
2023-05-11T08:08:07.052Z,7.07
2023-05-11T08:11:11.440Z,5.43
2023-05-11T08:14:14.494Z,13.73
2023-05-11T08:17:17.241Z,10.43
2023-05-11T08:20:20.319Z,8.57
2023-05-11T08:23:23.086Z,5.97
2023-05-11T08:26:27.223Z,9.45
2023-05-11T08:29:30.032Z,10.40
2023-05-11T08:32:38.229Z,7.97
2023-05-11T08:35:49.332Z,8.90
2023-05-11T08:38:53.761Z,8.38
2023-05-11T08:42:05.948Z,10.48
2023-05-11T08:45:11.436Z,5.70
2023-05-11T08:48:15.478Z,7.20
2023-05-11T08:51:18.325Z,10.70
2023-05-11T08:54:21.142Z,6.97
2023-05-11T08:57:26.384Z,6.72
2023-05-11T09:00:29.511Z,7.72
2023-05-11T09:03:35.955Z,7.88
2023-05-11T09:06:39.824Z,5.95
2023-05-11T09:09:42.733Z,6.25
2023-05-11T09:12:47.646Z,6.32
2023-05-11T09:15:51.003Z,5.03
2023-05-11T09:18:54.884Z,5.95
2023-05-11T09:21:58.051Z,5.47
2023-05-11T09:25:02.763Z,7.25
2023-05-11T09:28:06.915Z,8.52
2023-05-11T09:31:09.759Z,7.50
2023-05-11T09:34:15.000Z,8.38
2023-05-11T09:37:19.487Z,5.32
2023-05-11T09:40:27.473Z,4.88
2023-05-11T09:43:37.587Z,9.48
2023-05-11T09:46:42.099Z,10.68
2023-05-11T09:49:47.603Z,11.40
2023-05-11T09:52:52.275Z,10.35
2023-05-11T09:55:56.686Z,4.70
2023-05-11T09:59:00.787Z,4.90
2023-05-11T10:02:21.108Z,6.47
2023-05-11T10:05:23.982Z,7.35
2023-05-11T10:08:30.175Z,6.35
2023-05-11T10:11:33.067Z,4.80
2023-05-11T10:14:37.319Z,6.35
2023-05-11T10:17:44.387Z,7.40
2023-05-11T10:20:47.538Z,5.95
2023-05-11T10:23:50.738Z,7.00
2023-05-11T10:26:54.111Z,9.35
2023-05-11T10:29:59.813Z,4.97
2023-05-11T10:33:02.872Z,7.32
2023-05-11T10:36:06.779Z,4.38
2023-05-11T10:39:09.558Z,4.78
2023-05-11T10:42:33.470Z,4.40
2023-05-11T10:45:47.712Z,5.65
2023-05-11T10:49:06.920Z,3.80
2023-05-11T10:52:23.463Z,4.65
2023-05-11T10:55:36.325Z,8.43
2023-05-11T10:58:57.995Z,8.20
2023-05-11T11:02:04.037Z,6.80
2023-05-11T11:05:10.813Z,4.75
2023-05-11T11:08:14.052Z,7.03
2023-05-11T11:11:30.732Z,5.18
2023-05-11T11:14:57.420Z,4.90
2023-05-11T11:18:23.862Z,6.65
2023-05-11T11:21:42.756Z,4.65
2023-05-11T11:24:47.180Z,4.03
2023-05-11T11:27:58.242Z,5.22
2023-05-11T11:31:26.565Z,6.20
2023-05-11T11:34:39.860Z,6.35
2023-05-11T11:38:03.705Z,5.47
2023-05-11T11:41:09.293Z,10.20
2023-05-11T11:44:21.724Z,8.60
2023-05-11T11:47:26.087Z,3.95
2023-05-11T11:50:30.744Z,6.30
2023-05-11T11:54:09.041Z,6.13
2023-05-11T11:57:51.165Z,7.03
2023-05-11T12:00:54.220Z,10.38
2023-05-11T12:04:25.944Z,8.25
2023-05-11T12:07:34.926Z,10.43
2023-05-11T12:10:38.000Z,10.38
2023-05-11T12:13:43.809Z,7.00
2023-05-11T12:17:01.424Z,6.20
2023-05-11T12:20:15.396Z,7.97
2023-05-11T12:23:20.384Z,5.30
2023-05-11T12:26:24.749Z,7.10
2023-05-11T12:29:27.504Z,9.57
2023-05-11T12:32:31.778Z,5.55
2023-05-11T12:35:35.393Z,5.22
2023-05-11T12:38:45.728Z,5.10
2023-05-11T12:41:50.179Z,6.80
2023-05-11T12:44:53.228Z,5.10
2023-05-11T12:47:58.530Z,7.68
2023-05-11T12:51:01.480Z,5.38
2023-05-11T12:54:05.762Z,5.20
2023-05-11T12:57:09.944Z,4.68
2023-05-11T13:00:15.487Z,5.95
2023-05-11T13:03:22.921Z,5.80
2023-05-11T13:06:25.825Z,4.80
2023-05-11T13:09:30.108Z,3.58
2023-05-11T13:12:34.394Z,4.55
2023-05-11T13:15:51.583Z,6.00
2023-05-11T13:18:58.517Z,16.10
2023-05-11T13:22:01.684Z,7.75
2023-05-11T13:25:06.907Z,24.95
2023-05-11T13:28:10.020Z,10.20
2023-05-11T13:31:12.864Z,9.75
2023-05-11T13:34:16.213Z,11.40
2023-05-11T13:37:19.116Z,11.02
2023-05-11T13:40:23.206Z,8.75
2023-05-11T13:43:26.301Z,5.50
2023-05-11T13:46:29.383Z,5.30
2023-05-11T13:49:32.238Z,5.32
2023-05-11T13:52:35.023Z,7.20
2023-05-11T13:55:39.345Z,9.05
2023-05-11T13:58:42.091Z,8.57
2023-05-11T14:01:44.854Z,9.15
2023-05-11T14:04:47.672Z,5.72
2023-05-11T14:07:50.686Z,6.78
2023-05-11T14:10:54.838Z,7.07
2023-05-11T14:13:57.645Z,6.57
2023-05-11T14:17:00.505Z,6.25
2023-05-11T14:20:03.826Z,7.53
2023-05-11T14:23:06.644Z,8.52
2023-05-11T14:26:10.994Z,5.70
2023-05-11T14:29:13.791Z,7.22
2023-05-11T14:32:17.128Z,7.28
2023-05-11T14:35:20.412Z,6.45
2023-05-11T14:38:23.337Z,5.40
2023-05-11T14:41:27.453Z,5.13
2023-05-11T14:44:30.232Z,6.20
2023-05-11T14:47:33.226Z,5.93
2023-05-11T14:50:36.191Z,6.10
2023-05-11T14:53:39.423Z,5.53
2023-05-11T14:56:43.521Z,5.28
2023-05-11T14:59:58.368Z,4.20
2023-05-11T15:03:02.172Z,5.28
2023-05-11T15:06:05.649Z,4.85
2023-05-11T15:09:08.389Z,9.10
2023-05-11T15:12:12.493Z,3.92
2023-05-11T15:15:15.277Z,4.80
2023-05-11T15:18:18.168Z,5.32
2023-05-11T15:21:21.114Z,5.70
2023-05-11T15:24:23.884Z,5.70
2023-05-11T15:27:27.981Z,3.47
2023-05-11T15:30:32.619Z,4.55
2023-05-11T15:33:35.745Z,3.42
2023-05-11T15:36:38.513Z,5.05
2023-05-11T15:39:41.287Z,5.43
2023-05-11T15:42:45.386Z,8.18
2023-05-11T15:45:48.254Z,4.68
2023-05-11T15:48:51.668Z,6.47
2023-05-11T15:51:54.426Z,5.40
2023-05-11T15:54:57.204Z,4.32
2023-05-11T15:58:01.289Z,5.75
2023-05-11T16:01:04.096Z,3.53
2023-05-11T16:04:06.893Z,4.25
2023-05-11T16:07:09.656Z,3.42
2023-05-11T16:10:12.521Z,5.60
2023-05-11T16:13:16.643Z,5.35
2023-05-11T16:16:19.670Z,6.05
2023-05-11T16:19:22.465Z,3.08
2023-05-11T16:22:25.302Z,4.07
2023-05-11T16:25:28.093Z,6.97
2023-05-11T16:28:33.234Z,4.68
2023-05-11T16:31:36.148Z,3.65
2023-05-11T16:34:38.976Z,3.42
2023-05-11T16:37:42.526Z,4.65
2023-05-11T16:40:45.326Z,3.28
2023-05-11T16:43:50.191Z,3.67
2023-05-11T16:46:53.436Z,3.83
2023-05-11T16:49:56.273Z,4.28
2023-05-11T16:52:59.093Z,4.10
2023-05-11T16:56:01.886Z,4.25
2023-05-11T16:59:06.129Z,5.93
2023-05-11T17:02:09.222Z,4.70
2023-05-11T17:05:13.580Z,2.50
2023-05-11T17:08:16.435Z,3.10
2023-05-11T17:11:19.200Z,2.60
2023-05-11T17:14:23.503Z,3.88
2023-05-11T17:17:26.436Z,3.60
2023-05-11T17:20:29.329Z,4.25
2023-05-11T17:23:32.804Z,2.67
2023-05-11T17:26:46.307Z,5.15
2023-05-11T17:29:51.296Z,4.90
2023-05-11T17:32:55.384Z,2.55
2023-05-11T17:35:58.249Z,4.57
2023-05-11T17:39:01.268Z,2.92
2023-05-11T17:42:04.188Z,3.33
2023-05-11T17:45:09.949Z,3.97
2023-05-11T17:48:13.015Z,3.80
2023-05-11T17:51:15.878Z,3.25
2023-05-11T17:54:19.155Z,4.03
2023-05-11T17:57:23.957Z,6.65
2023-05-11T18:00:28.558Z,3.58
2023-05-11T18:03:31.467Z,2.70
2023-05-11T18:06:34.603Z,3.08
2023-05-11T18:09:37.391Z,3.03
2023-05-11T18:12:40.143Z,3.00
2023-05-11T18:15:44.331Z,3.75
2023-05-11T18:18:47.107Z,3.92
2023-05-11T18:21:51.912Z,4.40
2023-05-11T18:24:54.987Z,3.22
2023-05-11T18:27:58.022Z,3.25
2023-05-11T18:31:02.218Z,3.03
2023-05-11T18:34:05.757Z,2.55
2023-05-11T18:37:08.974Z,2.67
2023-05-11T18:40:12.521Z,2.40
2023-05-11T18:43:15.301Z,2.80
2023-05-11T18:46:20.232Z,2.38
2023-05-11T18:49:23.133Z,3.67
2023-05-11T18:52:25.881Z,2.42
2023-05-11T18:55:30.834Z,2.95
2023-05-11T18:58:33.937Z,2.55
2023-05-11T19:01:47.166Z,2.92
2023-05-11T19:04:50.577Z,1.92
2023-05-11T19:07:53.341Z,2.85
2023-05-11T19:10:56.239Z,2.80
2023-05-11T19:13:59.046Z,2.83
2023-05-11T19:17:04.524Z,2.42
2023-05-11T19:20:09.378Z,2.40
2023-05-11T19:23:12.202Z,2.60
2023-05-11T19:26:15.352Z,3.22
2023-05-11T19:29:20.931Z,2.85
2023-05-11T19:32:25.290Z,2.58
2023-05-11T19:35:28.351Z,2.58
2023-05-11T19:38:31.160Z,3.25
2023-05-11T19:41:34.331Z,2.78
2023-05-11T19:44:43.252Z,3.58
2023-05-11T19:47:47.417Z,2.05
2023-05-11T19:50:50.207Z,6.05
2023-05-11T19:53:53.710Z,3.50
2023-05-11T19:56:59.733Z,2.78
2023-05-11T20:00:05.240Z,2.13
2023-05-11T20:03:09.742Z,2.15
2023-05-11T20:06:12.720Z,2.97
2023-05-11T20:09:15.484Z,2.80
2023-05-11T20:12:18.284Z,4.05
2023-05-11T20:15:21.123Z,2.70
2023-05-11T20:18:25.334Z,3.58
2023-05-11T20:21:28.187Z,2.50
2023-05-11T20:24:31.236Z,2.33
2023-05-11T20:27:34.052Z,3.85
2023-05-11T20:30:37.398Z,2.28
2023-05-11T20:36:53.705Z,2.25
2023-05-11T20:39:56.596Z,3.78
2023-05-11T20:42:59.374Z,3.13
2023-05-11T20:46:03.385Z,2.42
2023-05-11T20:49:07.593Z,3.60
2023-05-11T20:52:11.102Z,2.70
2023-05-11T20:55:13.904Z,2.47
2023-05-11T20:58:16.680Z,2.25
2023-05-11T21:01:19.502Z,3.00
2023-05-11T21:04:24.026Z,2.40
2023-05-11T21:07:28.309Z,3.33
2023-05-11T21:10:31.629Z,2.63
2023-05-11T21:13:34.456Z,2.47
2023-05-11T21:16:37.253Z,1.80
2023-05-11T21:19:41.405Z,2.60
2023-05-11T21:22:44.129Z,4.53
2023-05-11T21:25:52.025Z,4.50
2023-05-11T21:28:54.810Z,9.38
2023-05-11T21:31:57.622Z,3.40
2023-05-11T21:35:01.797Z,3.00
2023-05-11T21:38:04.635Z,4.45
2023-05-11T21:41:07.638Z,6.25
2023-05-11T21:44:10.464Z,3.70
2023-05-11T21:47:13.271Z,5.05
2023-05-11T21:50:18.002Z,2.00
2023-05-11T21:53:21.181Z,2.72
2023-05-11T21:56:25.040Z,8.13
2023-05-11T21:59:27.806Z,2.65
2023-05-11T22:02:30.642Z,3.67
2023-05-11T22:05:34.881Z,4.88
2023-05-11T22:08:37.706Z,3.05
2023-05-11T22:11:40.552Z,3.30
2023-05-11T22:14:43.275Z,3.85
2023-05-11T22:17:46.057Z,2.83
2023-05-11T22:20:50.189Z,2.13
2023-05-11T22:23:53.012Z,3.30
2023-05-11T22:26:55.857Z,3.92
2023-05-11T22:29:58.639Z,2.85
2023-05-11T22:33:01.654Z,3.15
2023-05-11T22:36:06.321Z,2.25
2023-05-11T22:39:09.079Z,2.40
2023-05-11T22:42:11.860Z,3.35
2023-05-11T22:45:15.184Z,2.58
2023-05-11T22:48:17.973Z,5.70
2023-05-11T22:51:22.280Z,2.55
2023-05-11T22:54:25.385Z,2.55
2023-05-11T22:57:28.139Z,4.85
2023-05-11T23:00:31.253Z,3.47
2023-05-11T23:03:34.062Z,2.40
2023-05-11T23:06:38.271Z,4.35
2023-05-11T23:09:41.113Z,2.45
2023-05-11T23:12:44.236Z,4.35
2023-05-11T23:15:47.038Z,4.22
2023-05-11T23:18:49.985Z,2.42
2023-05-11T23:21:54.409Z,3.67
2023-05-11T23:24:57.257Z,3.10
2023-05-11T23:27:59.963Z,4.90
2023-05-11T23:31:03.054Z,2.95
2023-05-11T23:34:05.800Z,3.70
2023-05-11T23:37:09.953Z,2.90
2023-05-11T23:40:13.051Z,4.28
2023-05-11T23:43:16.224Z,2.95
2023-05-11T23:46:19.009Z,2.42
2023-05-11T23:49:22.558Z,3.50
2023-05-11T23:52:26.970Z,3.08
2023-05-11T23:55:29.861Z,3.05
2023-05-11T23:58:32.669Z,5.47
